Time;durP1;ratioP1;P1;durP2;ratioP2;P2;SDS_P1;SDS_P2;PMS_P1;PMS_P2;Temp;Humidity;BMP_temperature;BMP_pressure;BME280_temperature;BME280_humidity;BME280_pressure;Samples;Min_cycle;Max_cycle;Signal;HPM_P1;HPM_P2
2022/12/19 00:02:10;;;;;;;35.67;32.17;;;3.90;26.30;;;;;;5073664;28;20413;-47
2022/12/19 00:04:36;;;;;;;35.83;32.40;;;4.00;25.90;;;;;;5074943;28;20203;-45
2022/12/19 00:07:01;;;;;;;38.03;34.23;;;4.00;25.90;;;;;;5075111;28;20539;-44
2022/12/19 00:09:27;;;;;;;37.67;34.07;;;4.10;25.40;;;;;;5074043;28;20171;-50
2022/12/19 00:11:53;;;;;;;37.20;33.60;;;4.20;25.20;;;;;;5074926;28;20187;-49
2022/12/19 00:14:19;;;;;;;35.23;31.80;;;4.20;25.30;;;;;;5075190;28;20174;-45
2022/12/19 00:16:45;;;;;;;36.47;32.87;;;4.20;25.20;;;;;;5074735;28;20189;-50
2022/12/19 00:19:12;;;;;;;33.50;30.30;;;3.80;25.90;;;;;;5073525;28;20778;-55
2022/12/19 00:21:38;;;;;;;38.00;34.30;;;3.70;26.40;;;;;;5073935;28;20778;-55
2022/12/19 00:24:06;;;;;;;36.83;33.20;;;3.70;26.40;;;;;;5073894;28;20453;-55
2022/12/19 00:26:35;;;;;;;36.77;33.17;;;3.60;26.30;;;;;;5073821;28;20177;-51
2022/12/19 00:29:05;;;;;;;36.80;33.30;;;3.60;26.80;;;;;;5074358;28;20775;-54
2022/12/19 00:31:32;;;;;;;35.47;32.10;;;3.40;27.20;;;;;;5073956;28;20412;-55
2022/12/19 00:33:59;;;;;;;37.57;33.77;;;3.40;27.20;;;;;;5073768;28;20448;-55
2022/12/19 00:36:27;;;;;;;36.60;33.20;;;3.20;27.00;;;;;;5073618;28;20709;-49
2022/12/19 00:38:55;;;;;;;37.50;33.73;;;3.20;27.20;;;;;;5073712;28;20444;-54
2022/12/19 00:41:21;;;;;;;36.27;33.00;;;3.10;27.40;;;;;;5073995;28;20405;-52
2022/12/19 00:43:52;;;;;;;37.83;34.10;;;3.00;27.30;;;;;;5074521;28;20441;-50
2022/12/19 00:46:18;;;;;;;38.53;34.90;;;2.80;27.50;;;;;;5073476;28;20771;-53
2022/12/19 00:48:44;;;;;;;37.60;34.00;;;2.80;27.40;;;;;;5073609;28;20473;-50
2022/12/19 00:51:12;;;;;;;38.60;34.73;;;2.70;27.40;;;;;;5073238;28;20166;-52
2022/12/19 00:53:38;;;;;;;42.97;38.57;;;2.80;27.40;;;;;;5074148;28;20710;-54
2022/12/19 00:56:07;;;;;;;40.03;35.93;;;2.90;27.50;;;;;;5073640;28;20413;-53
2022/12/19 00:58:33;;;;;;;40.77;36.83;;;3.00;27.10;;;;;;5073462;28;20582;-47
2022/12/19 01:01:05;;;;;;;38.87;34.97;;;3.20;27.70;;;;;;5074028;28;20782;-47
2022/12/19 01:03:31;;;;;;;39.87;36.10;;;3.30;26.70;;;;;;5073834;28;20462;-46
2022/12/19 01:05:56;;;;;;;40.47;36.27;;;3.40;26.40;;;;;;5074340;28;20409;-46
2022/12/19 01:08:22;;;;;;;39.47;35.40;;;3.50;26.20;;;;;;5073873;28;20194;-53
2022/12/19 01:10:49;;;;;;;36.60;33.20;;;3.50;26.40;;;;;;5072757;28;20167;-52
2022/12/19 01:13:17;;;;;;;39.20;35.30;;;3.60;26.50;;;;;;5073498;28;20173;-54
2022/12/19 01:15:43;;;;;;;37.07;33.43;;;3.70;26.50;;;;;;5073632;28;20778;-54
2022/12/19 01:18:10;;;;;;;38.70;34.97;;;3.80;26.30;;;;;;5073020;28;20419;-54
2022/12/19 01:20:40;;;;;;;36.10;32.50;;;3.90;26.40;;;;;;5073371;28;20507;-55
2022/12/19 01:23:08;;;;;;;37.07;33.60;;;4.00;26.00;;;;;;5073134;28;20456;-54
2022/12/19 01:25:35;;;;;;;36.27;32.67;;;4.00;26.10;;;;;;5073360;28;20491;-51
2022/12/19 01:28:01;;;;;;;35.20;31.70;;;4.00;26.50;;;;;;5072529;28;20409;-53
2022/12/19 01:30:28;;;;;;;35.60;32.00;;;3.90;26.70;;;;;;5072869;28;20413;-54
2022/12/19 01:32:55;;;;;;;35.00;31.60;;;3.90;26.40;;;;;;5072737;28;20593;-52
2022/12/19 01:35:21;;;;;;;35.63;32.30;;;3.80;26.40;;;;;;5073193;28;20961;-55
2022/12/19 01:37:47;;;;;;;36.80;33.30;;;3.70;27.30;;;;;;5072433;28;20412;-55
2022/12/19 01:40:13;;;;;;;37.37;33.40;;;3.50;27.80;;;;;;5073359;28;20416;-56
2022/12/19 01:42:39;;;;;;;38.50;34.80;;;3.60;28.00;;;;;;5091852;28;20635;-54
2022/12/19 01:45:07;;;;;;;37.77;34.27;;;3.80;27.90;;;;;;5072225;28;20495;-54
2022/12/19 01:47:47;;;;;;;36.30;32.90;;;4.00;27.30;;;;;;5072596;28;20440;-55
2022/12/19 01:50:18;;;;;;;36.20;32.80;;;4.10;27.00;;;;;;5073392;28;20420;-55
2022/12/19 01:52:44;;;;;;;35.23;31.90;;;3.90;27.00;;;;;;5072291;28;20405;-44
2022/12/19 01:55:10;;;;;;;36.60;33.20;;;3.90;27.30;;;;;;5073144;28;20979;-55
2022/12/19 01:57:38;;;;;;;36.07;32.53;;;3.80;27.30;;;;;;5073217;28;20424;-46
2022/12/19 02:00:08;;;;;;;39.07;35.03;;;3.80;28.10;;;;;;5072744;28;20413;-46
2022/12/19 02:03:10;;;;;;;36.43;33.10;;;3.70;27.60;;;;;;5072696;28;20425;-44
2022/12/19 02:05:37;;;;;;;37.30;33.73;;;3.60;27.90;;;;;;5065681;28;21158;-44
2022/12/19 02:08:04;;;;;;;38.50;34.60;;;3.70;28.00;;;;;;5072618;28;20468;-44
2022/12/19 02:10:29;;;;;;;38.77;34.87;;;3.70;27.60;;;;;;5073246;28;20409;-44
2022/12/19 02:12:55;;;;;;;35.50;32.17;;;3.80;27.70;;;;;;5072176;28;20947;-44
2022/12/19 02:15:21;;;;;;;37.63;34.00;;;3.80;28.00;;;;;;5072267;28;20669;-44
2022/12/19 02:18:19;;;;;;;36.80;33.40;;;3.90;27.60;;;;;;5072736;28;20469;-44
2022/12/19 02:21:02;;;;;;;36.77;33.47;;;3.80;27.40;;;;;;5072446;28;20541;-53
2022/12/19 02:24:03;;;;;;;37.40;33.97;;;3.60;27.90;;;;;;5090269;28;20412;-52
2022/12/19 02:26:36;;;;;;;39.13;35.40;;;3.50;28.20;;;;;;5073009;28;20951;-45
2022/12/19 02:29:31;;;;;;;38.63;34.90;;;3.50;28.40;;;;;;5072842;28;20420;-45
2022/12/19 02:32:06;;;;;;;38.93;35.10;;;3.50;28.50;;;;;;5072393;28;20416;-53
2022/12/19 02:34:43;;;;;;;38.00;34.40;;;3.40;29.10;;;;;;5090228;28;20408;-54
2022/12/19 02:37:29;;;;;;;36.80;33.40;;;3.50;29.30;;;;;;5071324;28;20409;-51
2022/12/19 02:40:08;;;;;;;40.17;36.37;;;3.10;31.10;;;;;;5071363;28;20542;-50
2022/12/19 02:42:40;;;;;;;35.80;32.67;;;2.80;32.80;;;;;;5071906;28;20416;-50
2022/12/19 02:45:09;;;;;;;39.93;36.33;;;2.80;33.20;;;;;;5071318;28;20457;-48
2022/12/19 02:47:35;;;;;;;39.10;35.40;;;2.80;33.60;;;;;;5071689;28;20743;-50
2022/12/19 02:50:03;;;;;;;36.50;33.03;;;2.80;34.00;;;;;;5071138;28;20409;-54
2022/12/19 02:52:28;;;;;;;36.87;33.47;;;2.90;33.50;;;;;;5072273;28;20491;-51
2022/12/19 02:54:57;;;;;;;37.67;34.20;;;2.70;34.70;;;;;;5071344;28;20512;-52
2022/12/19 02:57:29;;;;;;;39.67;36.03;;;2.60;35.70;;;;;;5072179;28;20174;-51
2022/12/19 03:00:13;;;;;;;36.10;32.70;;;2.50;36.40;;;;;;5072374;28;20528;-54
2022/12/19 03:02:53;;;;;;;37.70;34.07;;;2.40;36.30;;;;;;5071404;28;20416;-52
2022/12/19 03:05:41;;;;;;;34.93;31.67;;;2.40;37.30;;;;;;5071707;28;20456;-53
2022/12/19 03:08:43;;;;;;;38.23;34.53;;;2.30;37.40;;;;;;5070871;28;20466;-54
2022/12/19 03:11:14;;;;;;;37.53;34.27;;;2.30;38.00;;;;;;5070669;28;20428;-50
2022/12/19 03:13:49;;;;;;;40.30;36.60;;;2.20;38.60;;;;;;5071693;28;20470;-52
2022/12/19 03:16:14;;;;;;;39.77;36.00;;;2.10;39.00;;;;;;5071382;28;20412;-54
2022/12/19 03:18:41;;;;;;;38.53;35.03;;;2.10;39.30;;;;;;5072119;28;20443;-51
2022/12/19 03:21:24;;;;;;;39.10;35.20;;;2.10;39.60;;;;;;5070271;28;20409;-53
2022/12/19 03:23:52;;;;;;;37.73;34.40;;;2.20;39.40;;;;;;5071245;28;20448;-54
2022/12/19 03:26:20;;;;;;;38.33;34.73;;;2.30;39.20;;;;;;5071119;28;20494;-51
2022/12/19 03:29:11;;;;;;;38.00;34.53;;;2.30;39.30;;;;;;5071302;28;20409;-53
2022/12/19 03:31:38;;;;;;;37.83;34.53;;;2.30;39.40;;;;;;5070774;28;20412;-51
2022/12/19 03:34:17;;;;;;;38.50;34.70;;;2.20;40.00;;;;;;5089143;28;20420;-52
2022/12/19 03:36:46;;;;;;;38.37;34.83;;;2.20;40.50;;;;;;5071734;28;20420;-51
2022/12/19 03:39:13;;;;;;;39.63;36.03;;;2.20;40.50;;;;;;5088906;28;20919;-54
2022/12/19 03:44:31;;;;;;;37.33;34.03;;;2.30;40.30;;;;;;5089160;28;20533;-54
2022/12/19 03:47:04;;;;;;;38.37;34.90;;;2.30;40.50;;;;;;5071711;28;20413;-54
2022/12/19 03:49:30;;;;;;;36.60;33.40;;;2.40;40.40;;;;;;5071463;28;20409;-53
2022/12/19 03:52:21;;;;;;;39.43;35.73;;;2.60;39.20;;;;;;5070091;28;20421;-52
2022/12/19 03:55:11;;;;;;;38.50;35.00;;;2.80;39.50;;;;;;5070538;28;20411;-54
2022/12/19 03:57:45;;;;;;;37.67;34.30;;;3.10;38.50;;;;;;5088882;28;20553;-54
2022/12/19 04:00:14;;;;;;;36.23;32.93;;;3.20;37.90;;;;;;5071096;28;20510;-53
2022/12/19 04:02:44;;;;;;;38.03;34.23;;;3.10;37.00;;;;;;5071006;28;20405;-53
2022/12/19 04:05:22;;;;;;;35.30;32.00;;;3.00;37.10;;;;;;5088541;28;20479;-49
2022/12/19 04:07:50;;;;;;;37.13;33.83;;;3.20;37.40;;;;;;5070018;28;20791;-49
2022/12/19 04:10:19;;;;;;;35.87;32.40;;;3.20;37.00;;;;;;5070407;28;20407;-51
2022/12/19 04:12:50;;;;;;;35.00;31.90;;;3.10;36.90;;;;;;5070626;28;20409;-44
2022/12/19 04:15:16;;;;;;;37.10;33.53;;;3.20;37.20;;;;;;5070251;28;20435;-44
2022/12/19 04:17:57;;;;;;;38.97;35.53;;;3.30;37.10;;;;;;5070733;28;20423;-49
2022/12/19 04:20:27;;;;;;;34.83;31.73;;;3.60;37.40;;;;;;5071047;28;20774;-44
2022/12/19 04:23:07;;;;;;;33.93;30.87;;;3.90;36.50;;;;;;5070529;28;20417;-46
2022/12/19 04:25:46;;;;;;;31.93;29.20;;;4.30;36.00;;;;;;5070352;28;20467;-44
2022/12/19 04:28:17;;;;;;;33.70;30.40;;;4.60;34.90;;;;;;5070424;28;20995;-47
2022/12/19 04:30:44;;;;;;;34.33;31.13;;;4.90;33.70;;;;;;5070560;28;20438;-47
2022/12/19 04:33:10;;;;;;;31.00;28.20;;;5.00;33.60;;;;;;5070589;28;20778;-45
2022/12/19 04:35:36;;;;;;;34.43;31.37;;;5.20;33.10;;;;;;5073889;28;20424;-45
2022/12/19 04:38:02;;;;;;;31.80;28.80;;;5.40;32.80;;;;;;5074180;28;20568;-46
2022/12/19 04:40:28;;;;;;;31.57;28.77;;;5.50;32.20;;;;;;5074101;28;20794;-43
2022/12/19 04:42:54;;;;;;;24.97;22.57;;;5.60;31.80;;;;;;5073402;28;20413;-54
2022/12/19 04:45:19;;;;;;;27.00;24.50;;;5.70;31.60;;;;;;5073877;28;20462;-55
2022/12/19 04:47:45;;;;;;;28.77;26.27;;;5.80;31.30;;;;;;5073732;28;20171;-53
2022/12/19 04:50:11;;;;;;;28.37;25.77;;;5.80;31.50;;;;;;5073663;28;20541;-52
2022/12/19 04:52:36;;;;;;;30.60;27.70;;;5.80;31.50;;;;;;5073680;28;20534;-51
2022/12/19 04:55:02;;;;;;;19.60;17.50;;;5.90;31.60;;;;;;5073444;28;20170;-48
2022/12/19 04:57:29;;;;;;;20.70;18.27;;;6.00;31.00;;;;;;5074193;28;20174;-49
2022/12/19 04:59:55;;;;;;;20.13;16.67;;;6.00;31.00;;;;;;5073990;28;20405;-48
2022/12/19 05:02:20;;;;;;;19.97;18.07;;;6.00;30.00;;;;;;5073944;28;20999;-47
2022/12/19 05:04:46;;;;;;;22.23;18.73;;;5.90;31.20;;;;;;5073904;28;20293;-48
2022/12/19 05:07:19;;;;;;;21.70;16.97;;;5.80;31.20;;;;;;5073367;28;20190;-47
2022/12/19 05:09:45;;;;;;;18.40;16.57;;;6.00;31.90;;;;;;5074271;28;20302;-44
2022/12/19 05:12:10;;;;;;;20.20;16.90;;;5.90;31.70;;;;;;5092017;28;20484;-44
2022/12/19 05:14:36;;;;;;;17.97;16.40;;;6.00;31.70;;;;;;5073766;28;20175;-46
2022/12/19 05:17:02;;;;;;;21.77;16.83;;;6.00;31.70;;;;;;5073924;28;20177;-50
2022/12/19 05:19:28;;;;;;;18.53;16.50;;;6.00;32.10;;;;;;5074199;28;20178;-51
2022/12/19 05:21:53;;;;;;;18.53;16.57;;;6.10;31.60;;;;;;5073652;28;20185;-54
2022/12/19 05:24:19;;;;;;;17.90;16.23;;;6.10;31.20;;;;;;5073511;28;20885;-54
2022/12/19 05:26:46;;;;;;;20.20;17.67;;;6.10;32.30;;;;;;5073793;28;20175;-55
2022/12/19 05:29:12;;;;;;;18.13;14.63;;;6.00;31.00;;;;;;5073341;28;20220;-53
2022/12/19 05:31:37;;;;;;;18.53;16.50;;;6.00;31.40;;;;;;5073557;28;20404;-53
2022/12/19 05:34:03;;;;;;;18.90;16.83;;;5.80;31.70;;;;;;5073751;28;20178;-52
2022/12/19 05:36:29;;;;;;;17.43;15.93;;;5.90;32.30;;;;;;5073992;28;20645;-54
2022/12/19 05:38:54;;;;;;;20.13;18.23;;;5.90;32.20;;;;;;5073567;28;20190;-44
2022/12/19 05:41:21;;;;;;;19.20;17.20;;;5.90;32.00;;;;;;5073925;28;20718;-50
2022/12/19 05:43:55;;;;;;;22.10;19.70;;;5.90;31.70;;;;;;5073904;28;20209;-49
2022/12/19 05:46:22;;;;;;;22.77;20.23;;;5.80;32.10;;;;;;5074198;28;20408;-45
2022/12/19 05:48:48;;;;;;;22.67;20.57;;;5.90;32.30;;;;;;5073832;28;20500;-46
2022/12/19 05:51:14;;;;;;;17.93;15.57;;;6.00;32.70;;;;;;5091994;28;20424;-48
2022/12/19 05:53:40;;;;;;;17.40;15.63;;;6.00;32.60;;;;;;5074449;28;20412;-46
2022/12/19 05:56:11;;;;;;;17.67;15.87;;;6.00;32.20;;;;;;5073627;28;20409;-48
2022/12/19 05:58:38;;;;;;;16.87;15.37;;;6.10;32.30;;;;;;5074212;28;20443;-45
2022/12/19 06:01:17;;;;;;;18.90;17.00;;;6.10;32.40;;;;;;5073208;28;20408;-46
2022/12/19 06:03:43;;;;;;;17.20;15.53;;;6.10;32.20;;;;;;5091742;28;20427;-43
2022/12/19 06:06:13;;;;;;;18.63;16.73;;;6.00;32.10;;;;;;5059868;28;20511;-52
2022/12/19 06:08:40;;;;;;;17.20;15.57;;;6.10;32.50;;;;;;5041328;28;20430;-55
2022/12/19 06:11:07;;;;;;;16.03;14.60;;;6.10;33.00;;;;;;5064672;28;20409;-53
2022/12/19 06:13:33;;;;;;;16.33;15.00;;;6.10;32.20;;;;;;5066392;28;20420;-49
2022/12/19 06:16:04;;;;;;;16.43;15.13;;;6.00;32.00;;;;;;5051176;28;20784;-46
2022/12/19 06:18:30;;;;;;;18.17;16.33;;;6.00;32.70;;;;;;5071741;28;20906;-45
2022/12/19 06:21:02;;;;;;;18.97;17.03;;;6.00;32.50;;;;;;5053056;28;20410;-44
2022/12/19 06:23:33;;;;;;;18.40;16.67;;;6.00;32.90;;;;;;5053144;28;20901;-47
2022/12/19 06:25:59;;;;;;;21.33;17.87;;;6.10;32.90;;;;;;5067480;28;20440;-45
2022/12/19 06:28:26;;;;;;;18.83;17.00;;;6.20;32.60;;;;;;5072340;28;20422;-53
2022/12/19 06:30:55;;;;;;;27.50;16.77;;;6.30;32.40;;;;;;5071888;28;20490;-54
2022/12/19 06:33:20;;;;;;;17.30;15.47;;;6.30;32.00;;;;;;5060612;28;20421;-48
2022/12/19 06:35:46;;;;;;;17.87;16.07;;;6.40;31.90;;;;;;5069941;28;20759;-48
2022/12/19 06:38:12;;;;;;;17.83;16.13;;;6.50;31.70;;;;;;5067254;28;20634;-52
2022/12/19 06:43:28;;;;;;;16.83;15.20;;;6.60;31.80;;;;;;5071050;28;20185;-52
2022/12/19 06:45:56;;;;;;;17.00;15.13;;;6.60;31.70;;;;;;5073095;28;20416;-51
2022/12/19 06:48:22;;;;;;;18.53;16.60;;;6.70;31.80;;;;;;5072801;28;20186;-50
2022/12/19 06:50:48;;;;;;;19.57;16.63;;;6.70;31.60;;;;;;5072907;28;20792;-49
2022/12/19 06:53:13;;;;;;;16.10;14.60;;;6.70;31.80;;;;;;5068120;28;20174;-53
2022/12/19 06:55:39;;;;;;;17.53;16.00;;;6.70;31.90;;;;;;5032906;28;20237;-52
2022/12/19 06:58:05;;;;;;;20.60;16.77;;;6.60;32.20;;;;;;5063732;28;20559;-50
2022/12/19 07:00:34;;;;;;;16.90;15.50;;;6.70;32.30;;;;;;5086235;28;20549;-54
2022/12/19 07:03:01;;;;;;;16.77;15.07;;;6.60;32.30;;;;;;5043142;28;20179;-51
2022/12/19 07:05:28;;;;;;;18.20;16.13;;;6.60;32.80;;;;;;5040576;28;20461;-44
2022/12/19 07:07:54;;;;;;;17.47;15.67;;;6.70;32.80;;;;;;5036128;28;20442;-43
2022/12/19 07:10:19;;;;;;;17.73;15.30;;;6.60;32.90;;;;;;5069005;28;20414;-46
2022/12/19 07:12:45;;;;;;;15.77;14.33;;;6.60;32.60;;;;;;5052621;28;20270;-44
2022/12/19 07:15:11;;;;;;;15.63;14.10;;;6.60;33.20;;;;;;5052608;28;20190;-46
2022/12/19 07:17:38;;;;;;;17.00;15.37;;;6.60;33.20;;;;;;5036629;28;20336;-43
2022/12/19 07:20:04;;;;;;;18.27;15.17;;;6.70;33.20;;;;;;5051595;28;20424;-52
2022/12/19 07:22:33;;;;;;;18.03;15.63;;;6.70;33.10;;;;;;5052437;28;20770;-48
2022/12/19 07:25:01;;;;;;;16.27;14.60;;;6.70;33.10;;;;;;5045196;28;20458;-44
2022/12/19 07:27:27;;;;;;;19.50;14.90;;;6.70;33.10;;;;;;5032470;28;20417;-47
2022/12/19 07:29:53;;;;;;;17.07;15.60;;;6.70;33.10;;;;;;5035467;28;20464;-44
2022/12/19 07:32:20;;;;;;;15.27;13.87;;;6.70;33.40;;;;;;5053214;28;20414;-44
2022/12/19 07:34:46;;;;;;;15.43;14.00;;;6.70;33.40;;;;;;5052712;28;20832;-51
2022/12/19 07:37:12;;;;;;;15.30;13.90;;;6.70;34.30;;;;;;5051815;28;20422;-45
2022/12/19 07:39:37;;;;;;;16.07;14.63;;;6.70;33.80;;;;;;5043047;28;20455;-47
2022/12/19 07:42:03;;;;;;;16.27;14.80;;;6.70;34.00;;;;;;5051968;28;20275;-45
2022/12/19 07:44:29;;;;;;;17.00;15.50;;;6.60;33.70;;;;;;5053182;28;20609;-47
2022/12/19 07:46:55;;;;;;;15.00;13.70;;;6.70;34.00;;;;;;5052827;28;20812;-48
2022/12/19 07:49:21;;;;;;;21.40;14.00;;;6.70;33.80;;;;;;5053600;28;20451;-48
2022/12/19 07:51:47;;;;;;;16.07;14.57;;;6.70;34.10;;;;;;5053047;28;20179;-46
2022/12/19 07:54:12;;;;;;;17.40;15.60;;;6.70;34.10;;;;;;5052720;28;20187;-48
2022/12/19 07:56:38;;;;;;;22.67;15.20;;;6.70;34.00;;;;;;5052813;28;20508;-52
2022/12/19 07:59:04;;;;;;;16.70;15.00;;;6.70;34.10;;;;;;5052779;28;20184;-46
2022/12/19 08:01:29;;;;;;;18.43;15.80;;;6.80;33.90;;;;;;5053124;28;20525;-49
2022/12/19 08:03:55;;;;;;;16.93;15.50;;;6.70;33.70;;;;;;5052680;28;20260;-45
2022/12/19 08:06:22;;;;;;;18.17;15.10;;;6.70;33.90;;;;;;5052307;28;20176;-44
2022/12/19 08:08:47;;;;;;;17.37;15.87;;;6.80;34.00;;;;;;5069676;28;20194;-47
2022/12/19 08:11:16;;;;;;;21.93;15.17;;;6.80;34.00;;;;;;5068530;28;20581;-46
2022/12/19 08:13:43;;;;;;;15.00;13.43;;;6.80;34.00;;;;;;5051075;28;20201;-49
2022/12/19 08:16:09;;;;;;;15.97;14.47;;;6.90;33.80;;;;;;5054726;28;20432;-46
2022/12/19 08:18:36;;;;;;;15.17;13.80;;;6.80;33.70;;;;;;5081055;28;20455;-45
2022/12/19 08:21:01;;;;;;;15.33;13.73;;;6.90;33.90;;;;;;5071410;28;20511;-45
2022/12/19 08:23:27;;;;;;;17.30;14.17;;;6.90;33.60;;;;;;5067280;28;20569;-49
2022/12/19 08:26:09;;;;;;;16.47;14.73;;;6.90;33.90;;;;;;5057351;28;20683;-45
2022/12/19 08:28:35;;;;;;;15.43;13.97;;;6.90;33.80;;;;;;5063656;28;20182;-47
2022/12/19 08:31:12;;;;;;;15.17;13.63;;;7.00;34.30;;;;;;5050459;28;20422;-47
2022/12/19 08:33:38;;;;;;;15.97;14.40;;;7.00;34.50;;;;;;5069801;28;20762;-50
2022/12/19 08:36:09;;;;;;;15.33;13.93;;;7.10;33.90;;;;;;5055752;28;20428;-47
2022/12/19 08:38:36;;;;;;;16.03;14.47;;;7.20;34.30;;;;;;5047106;28;20220;-51
2022/12/19 08:41:02;;;;;;;16.63;12.87;;;7.20;33.80;;;;;;5055231;28;20436;-52
2022/12/19 08:43:29;;;;;;;16.97;15.27;;;7.20;33.50;;;;;;5051344;28;20505;-55
2022/12/19 08:45:55;;;;;;;17.40;15.67;;;7.30;33.40;;;;;;5057260;28;20484;-54
2022/12/19 08:48:21;;;;;;;15.77;14.10;;;7.20;33.40;;;;;;5064378;28;20421;-50
2022/12/19 08:50:55;;;;;;;15.00;13.90;;;7.10;34.00;;;;;;5070814;28;20424;-48
2022/12/19 08:53:22;;;;;;;17.27;15.70;;;7.20;34.00;;;;;;5069604;28;20227;-47
2022/12/19 08:55:56;;;;;;;15.73;14.23;;;7.00;34.70;;;;;;5059155;28;20844;-51
2022/12/19 08:58:23;;;;;;;17.20;15.40;;;7.00;34.90;;;;;;5067582;28;20413;-51
2022/12/19 09:00:48;;;;;;;16.67;15.27;;;7.10;34.70;;;;;;5065918;28;20434;-47
2022/12/19 09:03:14;;;;;;;18.77;16.53;;;7.10;34.30;;;;;;5036181;28;20416;-48
2022/12/19 09:05:40;;;;;;;16.83;15.20;;;7.10;34.20;;;;;;5035990;28;20212;-48
2022/12/19 09:08:05;;;;;;;16.50;14.90;;;7.20;34.10;;;;;;5035901;28;20245;-50
2022/12/19 09:10:31;;;;;;;16.63;15.10;;;7.10;34.70;;;;;;5045418;28;20183;-49
2022/12/19 09:12:57;;;;;;;14.77;13.17;;;7.10;34.70;;;;;;5035371;28;20180;-50
2022/12/19 09:15:23;;;;;;;18.17;15.20;;;7.10;34.80;;;;;;5046337;28;20593;-51
2022/12/19 09:17:49;;;;;;;15.50;14.17;;;7.10;34.70;;;;;;5055394;28;20457;-52
2022/12/19 09:20:14;;;;;;;16.43;15.33;;;7.20;34.70;;;;;;5054824;28;20940;-50
2022/12/19 09:22:40;;;;;;;16.80;15.40;;;7.20;34.50;;;;;;5055536;28;20270;-51
2022/12/19 09:25:06;;;;;;;15.97;14.60;;;7.20;34.80;;;;;;5055370;28;20211;-54
2022/12/19 09:27:32;;;;;;;15.73;14.13;;;7.20;34.50;;;;;;5055500;28;20186;-56
2022/12/19 09:29:57;;;;;;;15.83;14.40;;;7.30;34.80;;;;;;5064829;28;20437;-56
2022/12/19 09:32:23;;;;;;;16.00;14.40;;;7.40;34.70;;;;;;5074753;28;20623;-56
2022/12/19 09:34:49;;;;;;;14.37;12.97;;;7.30;34.00;;;;;;5066507;28;20543;-56
2022/12/19 09:37:14;;;;;;;15.33;13.73;;;7.30;34.70;;;;;;5065823;28;20189;-55
2022/12/19 09:39:40;;;;;;;13.80;12.83;;;7.40;34.20;;;;;;5067386;28;20533;-54
2022/12/19 09:42:40;;;;;;;15.73;14.23;;;7.40;33.70;;;;;;5070145;28;20551;-55
2022/12/19 09:45:10;;;;;;;16.00;14.70;;;7.50;34.00;;;;;;5074891;28;20199;-46
2022/12/19 09:47:39;;;;;;;15.17;13.87;;;7.40;33.40;;;;;;5075200;28;20432;-47
2022/12/19 09:50:21;;;;;;;17.10;15.33;;;7.30;34.40;;;;;;5063724;28;20460;-47
2022/12/19 09:52:56;;;;;;;15.33;14.17;;;7.10;35.20;;;;;;5060925;28;20901;-46
2022/12/19 09:55:32;;;;;;;14.60;13.37;;;7.10;34.80;;;;;;5071179;28;20425;-50
2022/12/19 09:58:07;;;;;;;13.70;12.60;;;7.20;35.10;;;;;;5089340;28;20439;-48
2022/12/19 10:00:43;;;;;;;14.23;12.93;;;7.40;34.60;;;;;;5063770;28;20816;-48
2022/12/19 10:03:30;;;;;;;14.40;13.17;;;7.50;34.10;;;;;;5064707;28;20889;-50
2022/12/19 10:06:12;;;;;;;14.83;13.53;;;7.60;33.70;;;;;;5070702;28;20464;-50
2022/12/19 10:08:40;;;;;;;14.30;13.10;;;7.70;33.60;;;;;;5067269;28;20460;-49
2022/12/19 10:11:14;;;;;;;14.90;13.50;;;7.70;33.20;;;;;;5053602;28;20418;-47
2022/12/19 10:14:01;;;;;;;15.60;14.20;;;7.80;33.30;;;;;;5071127;28;20842;-48
2022/12/19 10:16:49;;;;;;;14.60;13.33;;;7.70;33.20;;;;;;5042437;28;20933;-49
2022/12/19 10:19:58;;;;;;;14.63;13.30;;;7.60;34.00;;;;;;5051474;28;20418;-46
2022/12/19 10:22:27;;;;;;;16.77;14.87;;;7.50;34.40;;;;;;5072073;28;20430;-45
2022/12/19 10:25:15;;;;;;;14.97;13.63;;;7.50;34.90;;;;;;5070911;28;20460;-49
2022/12/19 10:27:56;;;;;;;15.57;14.47;;;7.40;34.90;;;;;;5087984;28;20984;-47
2022/12/19 10:30:22;;;;;;;15.10;13.70;;;7.40;35.30;;;;;;5055892;28;20421;-49
2022/12/19 10:33:29;;;;;;;15.70;14.03;;;7.40;35.10;;;;;;5060417;28;20421;-49
2022/12/19 10:35:58;;;;;;;17.03;15.20;;;7.40;35.20;;;;;;4962568;28;20516;-45
2022/12/19 10:38:50;;;;;;;15.07;13.97;;;7.30;36.00;;;;;;5029619;28;20423;-50
2022/12/19 10:41:23;;;;;;;17.47;15.87;;;7.30;36.20;;;;;;5034730;28;20875;-54
2022/12/19 10:44:09;;;;;;;19.67;17.67;;;7.40;35.60;;;;;;5049017;28;20444;-55
2022/12/19 10:46:38;;;;;;;15.27;14.07;;;7.40;35.70;;;;;;5054630;28;20833;-56
2022/12/19 10:49:15;;;;;;;18.87;15.03;;;7.50;35.70;;;;;;5056606;28;20429;-54
2022/12/19 10:51:42;;;;;;;15.50;14.30;;;7.60;35.30;;;;;;5050367;28;20411;-55
2022/12/19 10:54:08;;;;;;;15.90;14.50;;;7.60;34.70;;;;;;5045050;28;20427;-54
2022/12/19 10:56:34;;;;;;;14.30;12.87;;;7.70;34.50;;;;;;5047835;28;20913;-56
2022/12/19 10:59:00;;;;;;;15.87;14.47;;;7.80;34.30;;;;;;5042021;28;20441;-59
2022/12/19 11:01:37;;;;;;;15.43;14.10;;;7.90;33.90;;;;;;5065136;28;20511;-54
2022/12/19 11:04:32;;;;;;;17.57;14.60;;;7.90;34.10;;;;;;5072781;28;20471;-54
2022/12/19 11:07:19;;;;;;;14.40;12.97;;;8.00;33.90;;;;;;5055234;28;20437;-56
2022/12/19 11:09:45;;;;;;;14.80;13.53;;;8.10;33.50;;;;;;5045258;28;20549;-56
2022/12/19 11:12:17;;;;;;;15.03;13.53;;;8.20;33.10;;;;;;5050786;28;20496;-57
2022/12/19 11:15:13;;;;;;;15.30;13.90;;;8.20;32.70;;;;;;5047807;28;20520;-56
2022/12/19 11:17:39;;;;;;;15.70;14.30;;;8.30;33.60;;;;;;5050117;28;20429;-52
2022/12/19 11:20:21;;;;;;;14.13;12.93;;;8.30;32.90;;;;;;5055511;28;20415;-52
2022/12/19 11:22:59;;;;;;;14.80;13.80;;;8.10;33.00;;;;;;5066068;28;20440;-52
2022/12/19 11:25:42;;;;;;;14.77;13.30;;;8.20;33.10;;;;;;5070327;28;20551;-54
2022/12/19 11:28:20;;;;;;;14.97;13.50;;;8.30;33.20;;;;;;5056966;28;20416;-55
2022/12/19 11:30:57;;;;;;;14.63;12.73;;;8.20;32.30;;;;;;5057035;28;20424;-53
2022/12/19 11:33:23;;;;;;;14.50;13.37;;;8.20;33.20;;;;;;5047702;28;20425;-55
2022/12/19 11:35:52;;;;;;;13.70;12.30;;;8.30;32.90;;;;;;5045409;28;20421;-56
2022/12/19 11:38:35;;;;;;;13.93;12.80;;;8.20;33.00;;;;;;5056636;28;20191;-56
2022/12/19 11:41:11;;;;;;;14.63;13.30;;;8.30;33.50;;;;;;5070607;28;20426;-52
2022/12/19 11:44:03;;;;;;;14.53;13.33;;;8.30;34.10;;;;;;5072440;28;20430;-53
2022/12/19 11:46:48;;;;;;;13.40;12.30;;;8.40;34.00;;;;;;5057234;28;20533;-54
2022/12/19 11:49:32;;;;;;;13.27;12.03;;;8.40;33.40;;;;;;5044390;28;20421;-54
2022/12/19 11:52:15;;;;;;;12.30;11.20;;;8.30;33.50;;;;;;5057216;28;20848;-55
2022/12/19 11:54:56;;;;;;;13.63;12.63;;;8.30;33.90;;;;;;5049912;28;20903;-53
2022/12/19 11:57:22;;;;;;;13.77;12.53;;;8.40;33.80;;;;;;5067467;28;20475;-56
2022/12/19 11:59:48;;;;;;;13.50;12.40;;;8.30;33.20;;;;;;5074396;28;20470;-56
2022/12/19 12:02:19;;;;;;;18.60;14.00;;;8.10;33.50;;;;;;5058211;28;20954;-54
2022/12/19 12:05:06;;;;;;;15.17;13.20;;;8.10;33.70;;;;;;5057155;28;20207;-55
2022/12/19 12:07:36;;;;;;;13.47;12.27;;;8.10;33.80;;;;;;5060091;28;20437;-55
2022/12/19 12:10:22;;;;;;;15.83;14.30;;;8.00;33.90;;;;;;5056642;28;20418;-53
2022/12/19 12:13:04;;;;;;;13.87;12.60;;;8.00;34.70;;;;;;5072264;28;20439;-53
2022/12/19 12:15:42;;;;;;;15.80;14.33;;;8.10;34.30;;;;;;5070648;28;20453;-56
2022/12/19 12:18:26;;;;;;;14.67;13.37;;;8.30;34.00;;;;;;5073919;28;20421;-52
2022/12/19 12:21:07;;;;;;;15.63;14.07;;;8.40;33.70;;;;;;5052480;28;20429;-51
2022/12/19 12:23:45;;;;;;;17.00;14.37;;;8.50;33.50;;;;;;5036505;28;20780;-55
2022/12/19 12:26:14;;;;;;;14.63;13.30;;;8.50;33.40;;;;;;5036722;28;20957;-54
2022/12/19 12:28:48;;;;;;;15.10;13.77;;;8.60;33.40;;;;;;5056370;28;20960;-54
2022/12/19 12:31:17;;;;;;;15.63;14.27;;;8.70;32.80;;;;;;5056606;28;20427;-54
2022/12/19 12:34:03;;;;;;;14.97;13.77;;;8.70;32.80;;;;;;5056613;28;20406;-46
2022/12/19 12:37:02;;;;;;;16.33;14.70;;;8.80;32.50;;;;;;5056811;28;20773;-46
2022/12/19 12:39:56;;;;;;;16.70;14.57;;;8.80;33.00;;;;;;5056652;28;20800;-51
2022/12/19 12:42:40;;;;;;;14.77;13.50;;;8.80;32.80;;;;;;5056284;28;20915;-48
2022/12/19 12:45:31;;;;;;;16.47;14.70;;;8.70;33.00;;;;;;5056496;28;20492;-50
2022/12/19 12:47:56;;;;;;;14.73;13.63;;;8.70;33.80;;;;;;5050217;28;20433;-50
2022/12/19 12:50:24;;;;;;;15.47;14.27;;;8.80;33.50;;;;;;5056803;28;20461;-45
2022/12/19 12:52:54;;;;;;;15.60;14.40;;;8.90;33.30;;;;;;5065019;28;20179;-45
2022/12/19 12:55:31;;;;;;;15.60;14.30;;;8.90;33.10;;;;;;5065604;28;20420;-48
2022/12/19 12:57:58;;;;;;;16.67;14.87;;;9.00;33.00;;;;;;5074765;28;20455;-44
2022/12/19 13:00:23;;;;;;;14.60;13.10;;;9.00;33.20;;;;;;5067499;28;20409;-44
2022/12/19 13:02:56;;;;;;;14.70;13.63;;;9.00;33.10;;;;;;5076130;28;20824;-44